Time;durP1;ratioP1;P1;durP2;ratioP2;P2;SDS_P1;SDS_P2;PMS_P1;PMS_P2;Temp;Humidity;BMP_temperature;BMP_pressure;BME280_temperature;BME280_humidity;BME280_pressure;Samples;Min_cycle;Max_cycle;Signal;HPM_P1;HPM_P2
2022/09/19 00:01:28;;;;;;;10.77;2.20;;;;;;;11.34;100.00;101194.94;5051289;28;20056;-75
2022/09/19 00:04:02;;;;;;;14.73;3.55;;;;;;;11.29;100.00;101195.31;5051012;28;20990;-75
2022/09/19 00:06:32;;;;;;;17.02;2.50;;;;;;;11.32;100.00;101190.97;5049564;28;20071;-75
2022/09/19 00:08:59;;;;;;;13.88;2.88;;;;;;;11.33;100.00;101196.13;5046184;28;20060;-75
2022/09/19 00:11:27;;;;;;;17.77;3.00;;;;;;;11.34;100.00;101196.94;5049577;28;20056;-75
2022/09/19 00:13:57;;;;;;;16.48;2.90;;;;;;;11.31;100.00;101195.72;5051831;28;20060;-75
2022/09/19 00:16:31;;;;;;;20.88;2.78;;;;;;;11.36;100.00;101200.88;5051587;28;20101;-75
2022/09/19 00:19:00;;;;;;;12.65;2.08;;;;;;;11.40;100.00;101193.38;5051585;28;20125;-75
2022/09/19 00:21:29;;;;;;;22.08;3.40;;;;;;;11.41;100.00;101192.19;5049812;28;20055;-75
2022/09/19 00:26:43;;;;;;;21.75;3.10;;;;;;;11.45;100.00;101181.94;5050623;28;20858;-75
2022/09/19 00:29:09;;;;;;;17.95;3.15;;;;;;;11.41;100.00;101191.41;5049601;28;20068;-74
2022/09/19 00:31:36;;;;;;;16.55;2.55;;;;;;;11.40;100.00;101193.38;5050208;28;20075;-75
2022/09/19 00:34:06;;;;;;;19.58;2.90;;;;;;;11.41;100.00;101192.19;5049994;28;20250;-75
2022/09/19 00:36:34;;;;;;;15.23;2.63;;;;;;;11.38;100.00;101204.06;5049740;28;20056;-75
2022/09/19 00:39:01;;;;;;;22.50;3.35;;;;;;;11.35;100.00;101204.84;5049387;28;20064;-75
2022/09/19 00:41:27;;;;;;;16.73;2.90;;;;;;;11.46;100.00;101202.09;5048735;28;20047;-75
2022/09/19 00:43:55;;;;;;;12.68;2.60;;;;;;;11.50;100.00;101200.94;5044681;28;20052;-75
2022/09/19 00:46:24;;;;;;;16.50;3.30;;;;;;;11.53;100.00;101204.88;5036631;28;20087;-74
2022/09/19 00:48:56;;;;;;;16.88;2.47;;;;;;;11.45;100.00;101208.81;5050991;28;20505;-73
2022/09/19 00:51:31;;;;;;;19.73;3.00;;;;;;;11.50;100.00;101206.47;5062448;28;20512;-74
2022/09/19 00:54:07;;;;;;;21.98;2.85;;;;;;;11.44;100.00;101208.03;5067804;28;20052;-74
2022/09/19 00:56:34;;;;;;;17.60;2.80;;;;;;;11.49;100.00;101215.16;5052136;28;20079;-74
2022/09/19 00:59:01;;;;;;;16.17;2.35;;;;;;;11.45;100.00;101212.41;5052765;28;20059;-74
2022/09/19 01:01:28;;;;;;;16.08;2.63;;;;;;;11.53;100.00;101213.19;5052413;28;20049;-75
2022/09/19 01:03:55;;;;;;;25.42;4.75;;;;;;;11.55;100.00;101217.19;5066156;28;20512;-74
2022/09/19 01:06:39;;;;;;;15.60;2.50;;;;;;;11.60;100.00;101224.28;5062674;28;20052;-73
2022/09/19 01:09:28;;;;;;;14.90;2.72;;;;;;;11.57;100.00;101220.34;5066592;28;20056;-74
2022/09/19 01:12:22;;;;;;;27.02;3.05;;;;;;;11.61;100.00;101228.69;5051058;28;20048;-75
2022/09/19 01:14:53;;;;;;;19.27;2.72;;;;;;;11.63;100.00;101227.13;5065698;28;20106;-74
2022/09/19 01:17:45;;;;;;;17.77;2.95;;;;;;;11.63;100.00;101227.13;5055573;28;20059;-73
2022/09/19 01:21:37;;;;;;;24.77;3.10;;;;;;;11.64;100.00;101231.47;5046486;28;20456;-74
2022/09/19 01:24:40;;;;;;;24.08;3.00;;;;;;;11.65;100.00;101237.81;5028519;28;20048;-74
2022/09/19 01:27:26;;;;;;;16.75;2.80;;;;;;;11.65;100.00;101235.81;5031526;28;20425;-74
2022/09/19 01:30:05;;;;;;;15.10;2.47;;;;;;;11.68;100.00;101234.28;5066100;28;20901;-74
2022/09/19 01:32:44;;;;;;;17.70;2.67;;;;;;;11.74;100.00;101241.03;5064079;28;20276;-75
2022/09/19 01:35:15;;;;;;;19.38;2.67;;;;;;;11.75;100.00;101231.50;5060289;28;20052;-77
2022/09/19 01:37:50;;;;;;;28.40;3.28;;;;;;;11.75;100.00;101240.59;5055363;28;20040;-75
2022/09/19 01:40:18;;;;;;;16.20;2.33;;;;;;;11.75;100.00;101248.16;5051891;28;20057;-75
2022/09/19 01:42:55;;;;;;;15.45;2.30;;;;;;;11.67;100.00;101240.97;5057440;28;20052;-72
2022/09/19 01:45:32;;;;;;;20.83;2.75;;;;;;;11.62;100.00;101238.59;5067198;28;20052;-72
2022/09/19 01:48:20;;;;;;;15.25;2.72;;;;;;;11.56;100.00;101232.63;5066921;28;20048;-73
2022/09/19 01:51:03;;;;;;;18.05;2.63;;;;;;;11.61;100.00;101246.13;5067801;28;20193;-74
2022/09/19 01:53:57;;;;;;;14.18;2.75;;;;;;;11.56;100.00;101242.91;5062294;28;20052;-74
2022/09/19 01:56:45;;;;;;;23.90;2.72;;;;;;;11.57;100.00;101242.50;5063786;28;20044;-74
2022/09/19 01:59:33;;;;;;;23.05;3.00;;;;;;;11.54;100.00;101248.06;5064462;28;20052;-75
2022/09/19 02:02:34;;;;;;;16.45;2.67;;;;;;;11.46;100.00;101251.97;5058739;28;20052;-75
2022/09/19 02:05:03;;;;;;;13.40;2.63;;;;;;;11.41;100.00;101253.13;5062694;28;20056;-74
2022/09/19 02:07:44;;;;;;;23.20;2.88;;;;;;;11.43;100.00;101261.06;5060551;28;20051;-73
2022/09/19 02:10:23;;;;;;;15.60;2.88;;;;;;;11.39;100.00;101257.47;5056106;28;20056;-74
2022/09/19 02:12:53;;;;;;;20.33;2.47;;;;;;;11.29;100.00;101238.84;5061123;28;20045;-74
2022/09/19 02:15:26;;;;;;;19.35;2.55;;;;;;;11.36;100.00;101258.25;5061640;28;20052;-74
2022/09/19 02:17:58;;;;;;;21.88;4.10;;;;;;;11.34;100.00;101260.66;5054352;28;20049;-75
2022/09/19 02:20:31;;;;;;;19.30;3.80;;;;;;;11.34;100.00;101255.09;5063597;28;20417;-75
2022/09/19 02:23:03;;;;;;;21.00;2.88;;;;;;;11.31;100.00;101258.66;5056038;28;20508;-74
2022/09/19 02:25:33;;;;;;;17.80;2.78;;;;;;;11.27;100.00;101268.94;5063235;28;20045;-74
2022/09/19 02:28:07;;;;;;;19.20;3.10;;;;;;;11.19;100.00;101264.50;5066729;28;20562;-75
2022/09/19 02:30:34;;;;;;;21.10;2.97;;;;;;;11.21;100.00;101265.75;5058427;28;20056;-75
2022/09/19 02:33:07;;;;;;;21.60;3.72;;;;;;;11.15;100.00;101263.72;5066341;28;20063;-74
2022/09/19 02:36:05;;;;;;;24.77;3.17;;;;;;;11.11;100.00;101262.91;5058306;28;20059;-74
2022/09/19 02:38:43;;;;;;;12.13;1.95;;;;;;;11.04;100.00;101262.88;5024693;28;20048;-74
2022/09/19 02:41:17;;;;;;;14.05;2.70;;;;;;;11.01;100.00;101272.75;5053403;28;20076;-73
2022/09/19 02:44:13;;;;;;;13.70;2.35;;;;;;;10.97;100.00;101280.22;5063819;28;20056;-74
2022/09/19 02:46:51;;;;;;;17.45;2.55;;;;;;;11.00;100.00;101275.91;5064394;28;20045;-72
2022/09/19 02:49:38;;;;;;;25.00;3.50;;;;;;;10.95;100.00;101274.28;5065142;28;20064;-74
2022/09/19 02:52:15;;;;;;;16.33;2.67;;;;;;;10.95;100.00;101274.28;5063918;28;20090;-74
2022/09/19 02:54:46;;;;;;;25.38;3.40;;;;;;;11.01;100.00;101283.00;5058618;28;20059;-73
2022/09/19 02:57:16;;;;;;;21.08;2.50;;;;;;;11.04;100.00;101277.50;5060295;28;20044;-71
2022/09/19 02:59:46;;;;;;;16.48;3.42;;;;;;;11.06;100.00;101277.09;5058133;28;20049;-74
2022/09/19 03:02:24;;;;;;;14.48;2.35;;;;;;;11.05;100.00;101281.88;5058925;28;20044;-75
2022/09/19 03:05:01;;;;;;;11.73;2.53;;;;;;;11.14;100.00;101279.53;5051635;28;20049;-75
2022/09/19 03:07:36;;;;;;;22.40;4.35;;;;;;;11.22;100.00;101280.38;5053290;28;20067;-73
2022/09/19 03:10:12;;;;;;;20.02;3.00;;;;;;;11.26;100.00;101283.94;5055978;28;20057;-74
2022/09/19 03:12:56;;;;;;;14.70;2.60;;;;;;;11.29;100.00;101283.16;5057432;28;20611;-73
2022/09/19 03:15:36;;;;;;;12.50;2.45;;;;;;;11.34;100.00;101291.91;5064958;28;20827;-74
2022/09/19 03:18:09;;;;;;;17.38;2.30;;;;;;;11.41;100.00;101291.16;5067769;28;20053;-74
2022/09/19 03:20:37;;;;;;;16.58;2.72;;;;;;;11.47;100.00;101292.38;5068950;28;20060;-75
2022/09/19 03:23:07;;;;;;;16.58;3.60;;;;;;;11.49;100.00;101298.31;5053335;28;20117;-74
2022/09/19 03:25:34;;;;;;;12.73;1.95;;;;;;;11.50;100.00;101292.38;5058607;28;20044;-73
2022/09/19 03:28:02;;;;;;;15.13;2.80;;;;;;;11.58;100.00;101295.97;5065646;28;20497;-75
2022/09/19 03:30:28;;;;;;;14.43;2.80;;;;;;;11.59;100.00;101300.31;5062697;28;20132;-78
2022/09/19 03:32:55;;;;;;;13.20;2.75;;;;;;;11.63;100.00;101301.16;5057812;28;20105;-75
2022/09/19 03:35:22;;;;;;;16.10;2.42;;;;;;;11.64;100.00;101295.22;5051738;28;20083;-76
2022/09/19 03:37:50;;;;;;;17.70;2.75;;;;;;;11.71;100.00;101295.25;5057967;28;20767;-75
2022/09/19 03:40:17;;;;;;;18.30;2.92;;;;;;;11.71;100.00;101286.16;5066949;28;20063;-73
2022/09/19 03:42:45;;;;;;;19.95;4.53;;;;;;;11.68;100.00;101295.25;5068347;28;20044;-77
2022/09/19 03:45:12;;;;;;;12.77;2.28;;;;;;;11.69;100.00;101296.84;5051945;28;20501;-74
2022/09/19 03:47:38;;;;;;;17.20;2.63;;;;;;;11.66;100.00;101294.84;5069549;28;20048;-72
2022/09/19 03:50:06;;;;;;;20.08;2.70;;;;;;;11.71;100.00;101294.47;5065459;28;20106;-77
2022/09/19 03:52:33;;;;;;;23.77;3.33;;;;;;;11.67;100.00;101305.53;5058195;28;20068;-73
2022/09/19 03:55:00;;;;;;;25.17;3.20;;;;;;;11.66;100.00;101292.06;5050875;28;20053;-76
2022/09/19 03:57:26;;;;;;;20.38;2.90;;;;;;;11.65;100.00;101302.34;5065672;28;20443;-74
2022/09/19 03:59:53;;;;;;;20.10;3.20;;;;;;;11.65;100.00;101309.91;5066537;28;20071;-74
2022/09/19 04:02:19;;;;;;;17.80;3.10;;;;;;;11.65;100.00;101309.91;5061390;28;20048;-74
2022/09/19 04:04:46;;;;;;;23.27;3.20;;;;;;;11.65;100.00;101318.22;5063298;28;20044;-77
2022/09/19 04:07:13;;;;;;;23.08;2.38;;;;;;;11.71;100.00;101317.44;5062673;28;20064;-75
2022/09/19 04:09:39;;;;;;;21.38;3.22;;;;;;;11.72;100.00;101316.25;5059743;28;20056;-75
2022/09/19 04:12:06;;;;;;;14.73;3.22;;;;;;;11.74;100.00;101311.09;5059118;28;20066;-75
2022/09/19 04:14:34;;;;;;;20.05;3.08;;;;;;;11.79;100.00;101319.06;5058339;28;20414;-74
2022/09/19 04:17:00;;;;;;;17.10;2.55;;;;;;;11.84;100.00;101315.09;5060164;28;20041;-77
2022/09/19 04:19:48;;;;;;;14.38;2.30;;;;;;;11.87;100.00;101315.13;5060526;28;20545;-76
2022/09/19 04:22:19;;;;;;;20.10;2.42;;;;;;;11.88;100.00;101308.38;5065516;28;20092;-75
2022/09/19 04:24:45;;;;;;;14.73;2.17;;;;;;;11.90;100.00;101317.09;5060747;28;20087;-76
2022/09/19 04:27:13;;;;;;;20.98;3.70;;;;;;;11.89;100.00;101323.03;5065589;28;20041;-77
2022/09/19 04:29:46;;;;;;;19.83;3.08;;;;;;;11.95;100.00;101319.50;5063063;28;20103;-76
2022/09/19 04:32:15;;;;;;;13.85;2.30;;;;;;;11.94;100.00;101320.69;5059396;28;20037;-76
2022/09/19 04:34:43;;;;;;;23.45;3.40;;;;;;;11.98;100.00;101321.47;5062174;28;20436;-76
2022/09/19 04:37:09;;;;;;;20.30;2.67;;;;;;;11.97;100.00;101319.09;5058005;28;20055;-77
2022/09/19 04:39:36;;;;;;;16.67;2.03;;;;;;;11.93;100.00;101319.09;5062694;28;20052;-76
2022/09/19 04:42:03;;;;;;;14.00;2.47;;;;;;;11.98;100.00;101326.25;5058921;28;20053;-74
2022/09/19 04:44:29;;;;;;;23.92;2.78;;;;;;;11.83;100.00;101324.59;5065292;28;20052;-71
2022/09/19 04:46:56;;;;;;;19.55;3.28;;;;;;;11.87;100.00;101333.72;5058434;28;20106;-75
2022/09/19 04:49:23;;;;;;;22.08;3.83;;;;;;;11.71;100.00;101330.53;5062713;28;20071;-74
2022/09/19 04:51:49;;;;;;;14.48;2.70;;;;;;;11.76;100.00;101336.47;5065604;28;20052;-74
2022/09/19 04:54:16;;;;;;;14.55;1.85;;;;;;;11.69;100.00;101341.19;5059891;28;20137;-74
2022/09/19 04:56:44;;;;;;;10.38;2.08;;;;;;;11.74;100.00;101346.38;5066802;28;20078;-74
2022/09/19 04:59:11;;;;;;;17.40;2.78;;;;;;;11.67;100.00;101349.09;5068842;28;20421;-73
2022/09/19 05:01:38;;;;;;;15.52;2.47;;;;;;;11.63;100.00;101353.81;5066971;28;20051;-73
2022/09/19 05:04:05;;;;;;;20.35;2.45;;;;;;;11.66;100.00;101350.28;5060803;28;20057;-72
2022/09/19 05:06:32;;;;;;;14.43;3.03;;;;;;;11.64;100.00;101358.22;5056750;28;20048;-75
2022/09/19 05:08:58;;;;;;;13.70;2.55;;;;;;;11.60;100.00;101351.78;5061718;28;20060;-75
2022/09/19 05:11:25;;;;;;;21.33;4.53;;;;;;;11.63;100.00;101360.16;5057916;28;20044;-73
2022/09/19 05:13:53;;;;;;;17.45;3.10;;;;;;;11.56;100.00;101360.13;5060326;28;20123;-76
2022/09/19 05:16:19;;;;;;;19.13;2.97;;;;;;;11.60;100.00;101360.91;5060514;28;20057;-77
2022/09/19 05:18:46;;;;;;;26.13;3.42;;;;;;;11.56;100.00;101365.66;5059434;28;20080;-74
2022/09/19 05:21:15;;;;;;;21.95;3.10;;;;;;;11.54;100.00;101361.69;5058840;28;20185;-75
2022/09/19 05:23:41;;;;;;;22.15;3.03;;;;;;;11.45;100.00;101361.22;5058497;28;20063;-74
2022/09/19 05:26:11;;;;;;;18.67;2.65;;;;;;;11.43;100.00;101371.91;5059336;28;20048;-76
2022/09/19 05:28:37;;;;;;;18.00;2.53;;;;;;;11.37;100.00;101373.47;5061080;28;20730;-74
2022/09/19 05:31:05;;;;;;;21.45;3.25;;;;;;;11.27;100.00;101374.19;5066772;28;20517;-73
2022/09/19 05:33:33;;;;;;;23.15;3.08;;;;;;;11.26;100.00;101375.34;5067417;28;20059;-76
2022/09/19 05:36:01;;;;;;;10.43;2.00;;;;;;;11.19;100.00;101383.63;5055093;28;20056;-74
2022/09/19 05:38:29;;;;;;;20.80;3.47;;;;;;;11.23;100.00;101378.91;5067694;28;20449;-74
2022/09/19 05:40:57;;;;;;;16.70;3.10;;;;;;;11.14;100.00;101381.22;5058643;28;20065;-75
2022/09/19 05:43:25;;;;;;;15.57;2.28;;;;;;;11.10;100.00;101381.19;5060317;28;20052;-76
2022/09/19 05:45:53;;;;;;;19.38;2.90;;;;;;;11.10;100.00;101392.25;5062071;28;20059;-76
2022/09/19 05:48:20;;;;;;;19.27;3.05;;;;;;;11.08;100.00;101400.19;5058867;28;20468;-74
2022/09/19 05:50:48;;;;;;;26.20;3.47;;;;;;;11.04;100.00;101388.28;5065174;28;20049;-75
2022/09/19 05:56:01;;;;;;;14.77;3.50;;;;;;;11.07;100.00;101403.31;5048846;28;20057;-73
2022/09/19 05:58:28;;;;;;;15.88;3.00;;;;;;;10.97;100.00;101402.03;5054482;28;20402;-76
2022/09/19 06:00:55;;;;;;;13.60;3.08;;;;;;;11.01;100.00;101405.66;5066603;28;20102;-71
2022/09/19 06:03:22;;;;;;;18.67;3.17;;;;;;;11.07;100.00;101403.31;5067044;28;20051;-74
2022/09/19 06:05:53;;;;;;;14.95;2.67;;;;;;;10.99;100.00;101407.19;5064523;28;20052;-73
2022/09/19 06:08:22;;;;;;;19.23;3.28;;;;;;;10.99;100.00;101408.00;5067307;28;20052;-74
2022/09/19 06:10:49;;;;;;;14.88;3.00;;;;;;;10.98;100.00;101416.69;5067344;28;20052;-74
2022/09/19 06:13:22;;;;;;;10.23;2.22;;;;;;;10.97;100.00;101421.44;5067931;28;20071;-73
2022/09/19 06:15:49;;;;;;;14.48;2.97;;;;;;;11.03;100.00;101408.06;5068199;28;20048;-74
2022/09/19 06:18:16;;;;;;;15.70;2.95;;;;;;;11.05;100.00;101413.97;5067874;28;20785;-73
2022/09/19 06:20:44;;;;;;;19.67;3.25;;;;;;;11.08;100.00;101418.75;5062221;28;20070;-74
2022/09/19 06:23:11;;;;;;;22.92;3.15;;;;;;;11.07;100.00;101417.19;5053258;28;20041;-76
2022/09/19 06:25:38;;;;;;;18.08;3.10;;;;;;;11.16;100.00;101426.75;5052453;28;20509;-74
2022/09/19 06:28:10;;;;;;;16.35;3.75;;;;;;;11.17;100.00;101433.88;5056907;28;20055;-73
2022/09/19 06:30:37;;;;;;;20.98;3.15;;;;;;;11.20;100.00;101435.09;5061749;28;20056;-70
2022/09/19 06:33:07;;;;;;;20.25;3.58;;;;;;;11.24;100.00;101431.13;5057483;28;20049;-71
2022/09/19 06:35:34;;;;;;;16.50;3.15;;;;;;;11.29;100.00;101441.88;5066524;28;20056;-71
2022/09/19 06:38:04;;;;;;;23.75;3.78;;;;;;;11.37;100.00;101448.28;5068023;28;20055;-71
2022/09/19 06:40:31;;;;;;;15.55;3.13;;;;;;;11.36;100.00;101449.44;5067946;28;20059;-70
2022/09/19 06:43:03;;;;;;;22.98;3.15;;;;;;;11.46;100.00;101448.72;5064953;28;20489;-71
2022/09/19 06:45:40;;;;;;;22.20;3.10;;;;;;;11.53;100.00;101451.53;5065073;28;20121;-72
2022/09/19 06:48:09;;;;;;;15.27;3.40;;;;;;;11.58;100.00;101442.88;5062090;28;20048;-71
2022/09/19 06:50:36;;;;;;;22.65;3.70;;;;;;;11.72;100.00;101454.06;5057889;28;20059;-72
2022/09/19 06:53:03;;;;;;;23.35;3.38;;;;;;;11.79;100.00;101459.66;5053583;28;20056;-71
2022/09/19 06:55:30;;;;;;;18.17;3.90;;;;;;;11.81;100.00;101460.06;5064681;28;20053;-69
2022/09/19 06:57:58;;;;;;;21.13;3.83;;;;;;;11.90;100.00;101466.84;5060561;28;20095;-71
2022/09/19 07:00:27;;;;;;;16.77;3.45;;;;;;;11.95;100.00;101466.47;5068395;28;20052;-70
2022/09/19 07:03:15;;;;;;;23.70;5.53;;;;;;;12.03;100.00;101467.31;5061426;28;20053;-70
2022/09/19 07:05:45;;;;;;;18.23;3.53;;;;;;;12.11;100.00;101461.41;5062683;28;20437;-68
2022/09/19 07:08:13;;;;;;;20.33;3.22;;;;;;;12.19;100.00;101465.78;5059353;28;20513;-70
2022/09/19 07:10:42;;;;;;;14.10;4.25;;;;;;;12.26;100.00;101460.28;5067692;28;20511;-70
2022/09/19 07:13:13;;;;;;;10.70;3.10;;;;;;;12.37;100.00;101471.41;5060364;28;20083;-71
2022/09/19 07:15:39;;;;;;;23.88;4.82;;;;;;;12.41;100.00;101473.03;5062041;28;20493;-69
2022/09/19 07:18:10;;;;;;;10.63;3.47;;;;;;;12.50;100.00;101469.88;5067351;28;20059;-70
2022/09/19 07:20:37;;;;;;;17.02;2.90;;;;;;;12.54;100.00;101470.69;5068422;28;20044;-68
2022/09/19 07:23:13;;;;;;;19.40;2.83;;;;;;;12.59;100.00;101486.97;5065734;28;20397;-70
2022/09/19 07:25:42;;;;;;;14.98;1.90;;;;;;;12.63;100.00;101482.22;5062295;28;20060;-69
2022/09/19 07:28:14;;;;;;;13.85;2.75;;;;;;;12.58;100.00;101491.72;5068253;28;20045;-69
2022/09/19 07:30:43;;;;;;;13.25;3.15;;;;;;;12.69;100.00;101486.97;5058751;28;20106;-69
2022/09/19 07:33:12;;;;;;;15.90;3.42;;;;;;;12.75;100.00;101496.53;5068253;28;20044;-69
2022/09/19 07:35:41;;;;;;;18.45;3.72;;;;;;;12.77;100.00;101493.34;5068935;28;20109;-66
2022/09/19 07:38:13;;;;;;;21.45;4.05;;;;;;;12.83;100.00;101498.13;5066604;28;20087;-69
2022/09/19 07:40:41;;;;;;;17.50;2.72;;;;;;;12.97;100.00;101497.38;5068159;28;20048;-69
2022/09/19 07:43:13;;;;;;;13.77;2.55;;;;;;;13.11;100.00;101491.84;5054271;28;20071;-70
2022/09/19 07:45:44;;;;;;;22.65;3.00;;;;;;;13.31;100.00;101498.59;5061924;28;20704;-70
2022/09/19 07:48:11;;;;;;;14.35;2.50;;;;;;;13.45;100.00;101497.81;5061458;28;20048;-68
2022/09/19 07:50:37;;;;;;;8.55;2.03;;;;;;;13.56;100.00;101502.16;5068039;28;20117;-66
2022/09/19 07:53:12;;;;;;;19.52;7.88;;;;;;;13.64;100.00;101509.31;5068954;28;20056;-68
2022/09/19 07:55:41;;;;;;;5.70;1.75;;;;;;;13.62;100.00;101500.56;5067574;28;20048;-69
2022/09/19 07:58:10;;;;;;;15.38;2.72;;;;;;;13.79;100.00;101513.66;5060339;28;20049;-69
2022/09/19 08:00:39;;;;;;;16.77;2.42;;;;;;;13.84;100.00;101510.47;5065494;28;20060;-67
2022/09/19 08:03:11;;;;;;;14.85;2.63;;;;;;;13.98;100.00;101518.81;5061679;28;20049;-69
2022/09/19 08:05:41;;;;;;;6.80;1.58;;;;;;;14.11;100.00;101519.16;5064926;28;20072;-67
2022/09/19 08:08:10;;;;;;;16.95;2.30;;;;;;;14.28;100.00;101518.34;5058979;28;20051;-69
2022/09/19 08:10:38;;;;;;;13.40;2.08;;;;;;;14.32;100.00;101511.56;5066817;28;20040;-68
2022/09/19 08:13:12;;;;;;;15.85;2.25;;;;;;;14.42;100.00;101513.53;5069401;28;20045;-70
2022/09/19 08:15:38;;;;;;;12.75;2.53;;;;;;;14.52;100.00;101523.03;5059246;28;20052;-68
2022/09/19 08:18:11;;;;;;;12.73;2.08;;;;;;;14.65;100.00;101524.94;5068966;28;20402;-68
2022/09/19 08:20:38;;;;;;;19.45;4.30;;;;;;;14.71;100.00;101520.53;5067206;28;20063;-69
2022/09/19 08:23:09;;;;;;;15.38;2.40;;;;;;;14.73;100.00;101517.34;5067689;28;20052;-69
2022/09/19 08:25:43;;;;;;;5.18;1.17;;;;;;;14.71;100.00;101514.97;5065451;28;20051;-67
2022/09/19 08:28:10;;;;;;;13.45;2.03;;;;;;;14.95;100.00;101525.16;5055366;28;20049;-68
2022/09/19 08:30:36;;;;;;;7.40;1.77;;;;;;;15.07;100.00;101519.13;5065180;28;20045;-66
2022/09/19 08:33:06;;;;;;;10.77;1.80;;;;;;;15.17;100.00;101523.84;5051222;28;20033;-68
2022/09/19 08:35:39;;;;;;;17.80;2.85;;;;;;;15.27;100.00;101528.53;5065206;28;20044;-71
2022/09/19 08:38:07;;;;;;;13.10;1.80;;;;;;;15.34;100.00;101530.47;5067196;28;20044;-67
2022/09/19 08:40:44;;;;;;;16.63;2.22;;;;;;;15.37;100.00;101530.50;5060070;28;20059;-69
2022/09/19 08:43:17;;;;;;;9.43;2.13;;;;;;;15.41;100.00;101539.63;5054835;28;20135;-67
2022/09/19 08:46:05;;;;;;;11.93;1.77;;;;;;;15.60;100.00;101531.88;5061054;28;20045;-69
2022/09/19 08:49:12;;;;;;;5.82;1.00;;;;;;;15.49;100.00;101529.97;5060511;28;20052;-68
2022/09/19 08:51:44;;;;;;;;;;;;;;;15.77;100.00;101536.50;5058677;28;20041;-69
2022/09/19 08:54:30;;;;;;;22.67;3.28;;;;;;;15.93;100.00;101534.75;5068521;28;19924;-68
2022/09/19 08:56:58;;;;;;;17.60;2.15;;;;;;;16.08;100.00;101547.38;5049441;28;20056;-68
2022/09/19 08:59:32;;;;;;;11.30;1.45;;;;;;;16.03;100.00;101545.00;5062765;28;20048;-68
2022/09/19 09:02:41;;;;;;;12.52;2.03;;;;;;;16.26;100.00;101547.19;5054626;28;20048;-70
2022/09/19 09:05:44;;;;;;;11.95;1.98;;;;;;;16.42;100.00;101544.59;5061071;28;20493;-71
2022/09/19 09:08:30;;;;;;;14.98;3.15;;;;;;;16.55;100.00;101551.25;5064140;28;20056;-69
2022/09/19 09:11:03;;;;;;;;;;;;;;;16.59;100.00;101552.78;5058469;28;20044;-66
2022/09/19 09:13:56;;;;;;;11.90;1.85;;;;;;;16.63;100.00;101549.94;5066423;28;19924;-70
2022/09/19 09:16:56;;;;;;;17.58;2.35;;;;;;;16.71;100.00;101545.84;5035448;28;20113;-70
2022/09/19 09:19:38;;;;;;;9.93;1.50;;;;;;;16.76;100.00;101546.19;5047347;28;20056;-67
2022/09/19 09:22:11;;;;;;;15.25;2.90;;;;;;;16.95;100.00;101553.91;5065531;28;20044;-68
2022/09/19 09:24:40;;;;;;;15.20;1.38;;;;;;;17.06;100.00;101557.34;5059172;28;20071;-69
2022/09/19 09:27:14;;;;;;;14.85;2.10;;;;;;;17.22;100.00;101545.53;5066905;28;20365;-70
2022/09/19 09:29:51;;;;;;;11.93;2.22;;;;;;;17.28;100.00;101549.44;5066385;28;20085;-71
2022/09/19 09:32:30;;;;;;;13.68;2.10;;;;;;;17.30;100.00;101550.59;5061932;28;20049;-69
2022/09/19 09:35:26;;;;;;;12.65;2.05;;;;;;;17.47;100.00;101548.75;5067198;28;20059;-71
2022/09/19 09:38:01;;;;;;;11.23;1.70;;;;;;;17.71;100.00;101550.34;5062644;28;20053;-71
2022/09/19 09:43:24;;;;;;;7.30;1.27;;;;;;;17.93;100.00;101545.97;5060803;28;20040;-68
2022/09/19 09:45:51;;;;;;;23.02;2.20;;;;;;;18.16;100.00;101543.13;5046604;28;20584;-71
2022/09/19 09:48:31;;;;;;;17.42;2.08;;;;;;;18.26;100.00;101550.50;5047635;28;20148;-67
2022/09/19 09:51:40;;;;;;;8.18;1.10;;;;;;;18.00;100.00;101554.22;5044137;28;20052;-70
2022/09/19 09:57:32;;;;;;;10.70;1.48;;;;;;;18.16;100.00;101537.53;5043585;28;20063;-73
2022/09/19 10:06:09;;;;;;;8.50;1.50;;;;;;;17.90;99.25;101538.41;5043872;28;20052;-71
2022/09/19 10:08:38;;;;;;;11.70;1.42;;;;;;;17.85;100.00;101544.50;5038701;28;20052;-71
2022/09/19 10:11:28;;;;;;;14.25;1.70;;;;;;;17.72;100.00;101560.34;5042366;28;20051;-70
2022/09/19 10:14:25;;;;;;;6.57;1.58;;;;;;;17.62;100.00;101550.88;5024507;28;20159;-71
2022/09/19 10:16:56;;;;;;;10.60;1.30;;;;;;;17.51;100.00;101538.28;5044688;28;20813;-71
2022/09/19 10:19:27;;;;;;;7.20;1.75;;;;;;;17.59;100.00;101548.16;5038266;28;20086;-71
2022/09/19 10:21:54;;;;;;;9.68;1.55;;;;;;;17.70;100.00;101545.97;5046919;28;20052;-71
2022/09/19 10:24:40;;;;;;;9.15;1.50;;;;;;;18.01;100.00;101544.59;5048499;28;20044;-71
2022/09/19 10:27:14;;;;;;;;;;;;;;;18.29;100.00;101537.69;5051002;28;20044;-70
2022/09/19 10:30:01;;;;;;;9.68;1.63;;;;;;;18.66;100.00;101537.34;5050299;28;19928;-69
2022/09/19 10:32:34;;;;;;;9.68;1.70;;;;;;;18.89;96.22;101537.22;5048683;28;20170;-71
2022/09/19 10:35:28;;;;;;;8.30;1.30;;;;;;;19.08;95.50;101540.00;5049207;28;20495;-69
2022/09/19 10:37:59;;;;;;;12.43;2.17;;;;;;;19.16;94.78;101535.78;5046321;28;20048;-70
2022/09/19 10:40:26;;;;;;;10.45;1.27;;;;;;;19.31;91.94;101534.25;5047569;28;20130;-70
2022/09/19 10:42:55;;;;;;;12.20;1.73;;;;;;;19.39;87.61;101530.06;5045006;28;20681;-70
2022/09/19 10:45:26;;;;;;;11.23;2.20;;;;;;;19.62;88.07;101529.09;5041975;28;20048;-70
2022/09/19 10:47:57;;;;;;;3.67;1.25;;;;;;;19.07;81.54;101532.03;5046424;28;20044;-70
2022/09/19 10:50:24;;;;;;;7.22;1.45;;;;;;;18.90;83.37;101536.00;5045204;28;20048;-72
2022/09/19 10:52:59;;;;;;;11.57;1.42;;;;;;;18.76;87.62;101536.31;5047612;28;20723;-71
2022/09/19 10:55:26;;;;;;;4.45;0.88;;;;;;;18.62;86.77;101531.81;5047135;28;20857;-72
2022/09/19 10:58:16;;;;;;;11.93;1.75;;;;;;;18.86;88.76;101526.91;5043572;28;20051;-71
2022/09/19 11:01:04;;;;;;;10.68;1.50;;;;;;;19.30;88.84;101529.09;5041262;28;20049;-69
2022/09/19 11:03:35;;;;;;;8.63;1.67;;;;;;;19.60;87.53;101529.53;5037987;28;20071;-71
2022/09/19 11:06:16;;;;;;;10.35;1.17;;;;;;;19.55;78.34;101526.47;5042680;28;20052;-70
2022/09/19 11:08:48;;;;;;;9.90;1.20;;;;;;;19.54;79.42;101528.47;5045536;28;20051;-71
2022/09/19 11:11:46;;;;;;;7.15;1.23;;;;;;;19.39;79.96;101527.25;5044215;28;20060;-70
2022/09/19 11:14:26;;;;;;;14.82;1.45;;;;;;;19.56;80.07;101528.84;5046600;28;20044;-70
2022/09/19 11:17:32;;;;;;;3.63;0.75;;;;;;;19.44;80.40;101518.28;5046553;28;20052;-70
2022/09/19 11:20:16;;;;;;;8.65;1.65;;;;;;;19.48;78.98;101529.44;5039253;28;20056;-71
2022/09/19 11:23:03;;;;;;;14.77;1.33;;;;;;;19.96;81.15;101533.00;5045310;28;20114;-70
2022/09/19 11:25:52;;;;;;;13.77;1.65;;;;;;;20.15;77.19;101526.47;5047098;28;20068;-70
2022/09/19 11:28:46;;;;;;;10.55;1.83;;;;;;;20.14;71.48;101521.28;5045889;28;20051;-69
2022/09/19 11:31:35;;;;;;;7.93;1.30;;;;;;;20.20;73.48;101530.75;5043827;28;20044;-70
2022/09/19 11:34:21;;;;;;;8.52;1.40;;;;;;;20.29;67.90;101525.31;5042610;28;20087;-71
2022/09/19 11:37:25;;;;;;;8.50;1.65;;;;;;;20.73;65.29;101532.03;5046405;28;20055;-72
2022/09/19 11:40:22;;;;;;;7.60;1.45;;;;;;;21.27;64.27;101530.78;5039758;28;20052;-71
2022/09/19 11:43:20;;;;;;;7.15;1.13;;;;;;;20.84;60.27;101524.88;5045609;28;20958;-71
2022/09/19 11:46:10;;;;;;;8.30;1.27;;;;;;;20.55;60.85;101526.16;5044020;28;20056;-70
2022/09/19 11:48:58;;;;;;;7.15;1.25;;;;;;;20.16;66.40;101525.25;5043212;28;20046;-70
2022/09/19 11:51:54;;;;;;;7.32;1.33;;;;;;;19.64;82.94;101521.03;5047599;28;20909;-70
2022/09/19 11:54:58;;;;;;;11.03;1.53;;;;;;;19.26;85.44;101526.38;5049009;28;20193;-72
2022/09/19 11:57:39;;;;;;;10.93;2.20;;;;;;;19.23;93.78;101518.78;5046275;28;20306;-69
2022/09/19 12:00:33;;;;;;;11.43;1.65;;;;;;;19.39;91.14;101516.03;5045933;28;20041;-71
2022/09/19 12:03:24;;;;;;;9.38;1.30;;;;;;;19.82;89.44;101524.97;5045299;28;20056;-70